createdAt,value
2016-09-16T00:00:06.717Z,6.82
2016-09-16T00:01:06.686Z,6.69
2016-09-16T00:02:06.714Z,6.54
2016-09-16T00:03:06.704Z,6.53
2016-09-16T00:04:06.695Z,6.45
2016-09-16T00:05:06.659Z,6.06
2016-09-16T00:06:06.665Z,5.75
2016-09-16T00:07:06.647Z,5.45
2016-09-16T00:08:06.630Z,5.63
2016-09-16T00:09:06.647Z,5.66
2016-09-16T00:10:06.613Z,5.78
2016-09-16T00:11:06.601Z,5.93
2016-09-16T00:12:06.606Z,6.05
2016-09-16T00:13:06.588Z,6.2
2016-09-16T00:14:06.586Z,6.33
2016-09-16T00:15:06.761Z,6.53
2016-09-16T00:16:06.565Z,6.55
2016-09-16T00:17:06.564Z,6.63
2016-09-16T00:18:06.554Z,6.61
2016-09-16T00:19:06.543Z,6.71
2016-09-16T00:20:06.527Z,6.78
2016-09-16T00:21:06.514Z,6.75
2016-09-16T00:22:06.502Z,6.71
2016-09-16T00:23:06.491Z,6.43
2016-09-16T00:24:06.489Z,6.24
2016-09-16T00:25:06.493Z,6.01
2016-09-16T00:26:06.470Z,5.85
2016-09-16T00:27:06.457Z,5.83
2016-09-16T00:28:06.463Z,5.63
2016-09-16T00:29:06.430Z,5.4
2016-09-16T00:30:06.411Z,5.37
2016-09-16T00:31:06.415Z,5.42
2016-09-16T00:32:06.423Z,5.55
2016-09-16T00:33:06.389Z,5.75
2016-09-16T00:34:06.375Z,5.78
2016-09-16T00:35:06.371Z,5.87
2016-09-16T00:36:06.382Z,5.99
2016-09-16T00:37:06.336Z,5.92
2016-09-16T00:38:06.368Z,5.83
2016-09-16T00:39:06.334Z,5.81
2016-09-16T00:40:06.342Z,5.81
2016-09-16T00:41:06.328Z,5.62
2016-09-16T00:42:06.308Z,5.6
2016-09-16T00:43:06.300Z,5.63
2016-09-16T00:44:06.279Z,5.63
2016-09-16T00:45:06.272Z,5.65
2016-09-16T00:46:06.251Z,5.56
2016-09-16T00:47:06.306Z,5.62
2016-09-16T00:48:06.237Z,5.58
2016-09-16T00:49:06.261Z,5.67
2016-09-16T00:50:06.244Z,5.74
2016-09-16T00:51:06.228Z,5.78
2016-09-16T00:52:06.191Z,5.83
2016-09-16T00:53:06.197Z,5.81
2016-09-16T00:54:06.188Z,5.73
2016-09-16T00:55:06.169Z,5.51
2016-09-16T00:56:06.155Z,5.19
2016-09-16T00:57:06.163Z,5.04
2016-09-16T00:58:06.140Z,5.08
2016-09-16T00:59:06.460Z,5.06
2016-09-16T01:00:06.121Z,5.15
2016-09-16T01:01:06.115Z,5.09
2016-09-16T01:02:06.085Z,5.05
2016-09-16T01:03:06.083Z,5.06
2016-09-16T01:04:06.097Z,5.04
2016-09-16T01:05:06.072Z,5.01
2016-09-16T01:06:06.065Z,5.04
2016-09-16T01:07:06.035Z,5.02
2016-09-16T01:08:06.033Z,5.04
2016-09-16T01:09:06.043Z,4.99
2016-09-16T01:10:06.020Z,4.96
2016-09-16T01:11:05.991Z,4.87
2016-09-16T01:12:05.982Z,4.87
2016-09-16T01:13:05.981Z,4.88
2016-09-16T01:14:05.982Z,4.84
2016-09-16T01:15:05.980Z,4.74
2016-09-16T01:16:05.932Z,4.84
2016-09-16T01:17:05.937Z,4.8
2016-09-16T01:18:05.948Z,4.79
2016-09-16T01:19:05.936Z,4.75
2016-09-16T01:20:05.902Z,4.91
2016-09-16T01:21:05.891Z,4.87
2016-09-16T01:22:05.874Z,4.9
2016-09-16T01:23:05.868Z,4.93
2016-09-16T01:24:05.843Z,5.08
2016-09-16T01:25:05.833Z,5.04
2016-09-16T01:26:05.843Z,4.91
2016-09-16T01:27:05.834Z,4.93
2016-09-16T01:28:05.834Z,4.9
2016-09-16T01:29:05.810Z,4.87
2016-09-16T01:30:05.794Z,4.8
2016-09-16T01:31:05.787Z,4.75
2016-09-16T01:32:05.786Z,4.83
2016-09-16T01:33:05.750Z,4.8
2016-09-16T01:34:05.763Z,4.84
2016-09-16T01:35:05.747Z,4.79
2016-09-16T01:36:05.716Z,4.87
2016-09-16T01:37:05.706Z,4.86
2016-09-16T01:38:05.712Z,4.8
2016-09-16T01:39:05.700Z,4.77
2016-09-16T01:40:05.695Z,4.79
2016-09-16T01:41:05.691Z,4.79
2016-09-16T01:42:05.657Z,4.88
2016-09-16T01:43:05.631Z,4.75
2016-09-16T01:44:05.643Z,4.87
2016-09-16T01:45:05.630Z,4.79
2016-09-16T01:46:05.604Z,4.79
2016-09-16T01:47:05.591Z,4.77
2016-09-16T01:48:05.600Z,4.79
2016-09-16T01:49:05.578Z,4.79
2016-09-16T01:50:05.582Z,4.79
2016-09-16T01:51:05.547Z,4.84
2016-09-16T01:52:05.539Z,4.77
2016-09-16T01:53:05.551Z,4.94
2016-09-16T01:54:05.502Z,4.88
2016-09-16T01:55:05.500Z,4.88
2016-09-16T01:56:05.513Z,4.9
2016-09-16T01:57:05.497Z,4.88
2016-09-16T01:58:05.471Z,4.87
2016-09-16T01:59:05.469Z,4.88
2016-09-16T02:00:05.438Z,4.87
2016-09-16T02:01:05.444Z,4.86
2016-09-16T02:02:05.446Z,4.83
2016-09-16T02:03:05.411Z,4.79
2016-09-16T02:04:05.427Z,4.88
2016-09-16T02:05:05.398Z,4.83
2016-09-16T02:06:05.362Z,4.88
2016-09-16T02:07:05.361Z,4.87
2016-09-16T02:08:05.363Z,4.86
2016-09-16T02:09:05.336Z,4.77
2016-09-16T02:10:05.326Z,4.8
2016-09-16T02:11:05.316Z,4.79
2016-09-16T02:12:05.312Z,4.87
2016-09-16T02:13:05.283Z,4.77
2016-09-16T02:14:05.300Z,4.83
2016-09-16T02:15:05.266Z,4.88
2016-09-16T02:16:05.574Z,4.84
2016-09-16T02:17:05.245Z,4.88
2016-09-16T02:18:05.247Z,4.88
2016-09-16T02:19:05.216Z,4.79
2016-09-16T02:20:05.217Z,4.9
2016-09-16T02:21:05.216Z,4.87
2016-09-16T02:22:05.196Z,4.94
2016-09-16T02:23:05.172Z,4.99
2016-09-16T02:24:05.167Z,5.05
2016-09-16T02:25:05.161Z,5.05
2016-09-16T02:26:05.155Z,5.02
2016-09-16T02:27:05.136Z,5.06
2016-09-16T02:28:05.150Z,4.94
2016-09-16T02:29:05.127Z,4.94
2016-09-16T02:30:05.100Z,4.99
2016-09-16T02:31:05.107Z,4.94
2016-09-16T02:32:05.079Z,4.84
2016-09-16T02:33:05.091Z,4.83
2016-09-16T02:34:05.370Z,4.86
2016-09-16T02:35:05.055Z,4.87
2016-09-16T02:36:05.054Z,4.93
2016-09-16T02:37:05.050Z,4.99
2016-09-16T02:38:05.018Z,5.12
2016-09-16T02:39:05.007Z,5.02
2016-09-16T02:40:05.030Z,4.84
2016-09-16T02:41:05.011Z,4.77
2016-09-16T02:42:04.968Z,4.75
2016-09-16T02:43:04.974Z,4.79
2016-09-16T02:44:04.984Z,4.8
2016-09-16T02:45:04.957Z,4.86
2016-09-16T02:46:04.955Z,4.96
2016-09-16T02:47:04.929Z,5.15
2016-09-16T02:48:04.907Z,5.23
2016-09-16T02:49:04.921Z,5.12
2016-09-16T02:50:04.901Z,5.06
2016-09-16T02:51:04.884Z,4.99
2016-09-16T02:52:04.894Z,5.02
2016-09-16T02:53:04.885Z,5.29
2016-09-16T02:54:04.858Z,5.4
2016-09-16T02:55:04.842Z,5.55
2016-09-16T02:56:04.852Z,5.66
2016-09-16T02:57:04.821Z,5.8
2016-09-16T02:58:04.818Z,5.9
2016-09-16T02:59:04.814Z,5.84
2016-09-16T03:00:04.804Z,5.84
2016-09-16T03:01:04.784Z,5.77
2016-09-16T03:02:04.773Z,5.7
2016-09-16T03:03:04.753Z,5.56
2016-09-16T03:04:04.760Z,5.47
2016-09-16T03:05:04.751Z,5.41
2016-09-16T03:06:04.751Z,5.44
2016-09-16T03:07:04.737Z,5.63
2016-09-16T03:08:04.713Z,5.67
2016-09-16T03:09:04.714Z,5.65
2016-09-16T03:10:04.684Z,5.74
2016-09-16T03:11:04.688Z,5.6
2016-09-16T03:12:04.672Z,5.56
2016-09-16T03:13:04.665Z,5.55
2016-09-16T03:14:04.651Z,5.56
2016-09-16T03:15:04.661Z,5.55
2016-09-16T03:16:04.619Z,5.52
2016-09-16T03:17:04.616Z,5.58
2016-09-16T03:18:04.631Z,5.69
2016-09-16T03:19:04.582Z,5.56
2016-09-16T03:20:04.585Z,5.66
2016-09-16T03:21:04.581Z,5.74
2016-09-16T03:22:04.585Z,5.62
2016-09-16T03:23:04.583Z,5.51
2016-09-16T03:24:04.558Z,5.52
2016-09-16T03:25:04.553Z,5.4
2016-09-16T03:26:04.548Z,5.35
2016-09-16T03:27:04.534Z,5.26
2016-09-16T03:28:04.508Z,5.35
2016-09-16T03:29:04.494Z,5.17
2016-09-16T03:30:04.475Z,5.24
2016-09-16T03:31:04.487Z,5.27
2016-09-16T03:32:04.776Z,5.27
2016-09-16T03:33:04.748Z,5.26
2016-09-16T03:34:04.743Z,5.3
2016-09-16T03:35:04.433Z,5.3
2016-09-16T03:36:04.449Z,5.44
2016-09-16T03:37:04.432Z,5.37
2016-09-16T03:38:04.417Z,5.38
2016-09-16T03:39:04.695Z,5.42
2016-09-16T03:40:04.694Z,5.26
2016-09-16T03:41:04.399Z,5.24
2016-09-16T03:42:04.353Z,5.27
2016-09-16T03:43:04.649Z,5.19
2016-09-16T03:44:04.348Z,5.11
2016-09-16T03:45:04.328Z,5.11
2016-09-16T03:46:04.355Z,5.11
2016-09-16T03:47:04.328Z,5.09
2016-09-16T03:48:04.451Z,5.12
2016-09-16T03:49:04.312Z,5.09
2016-09-16T03:50:04.315Z,5.24
2016-09-16T03:51:04.296Z,5.23
2016-09-16T03:52:04.258Z,5.38
2016-09-16T03:53:04.275Z,5.44
2016-09-16T03:54:04.259Z,5.44
2016-09-16T03:55:04.263Z,5.69
2016-09-16T03:56:04.257Z,5.84
2016-09-16T03:57:04.223Z,5.95
2016-09-16T03:58:04.220Z,6.08
2016-09-16T03:59:04.223Z,6.13
2016-09-16T04:00:04.198Z,6.01
2016-09-16T04:01:04.190Z,5.84
2016-09-16T04:02:04.174Z,5.65
2016-09-16T04:03:04.179Z,5.51
2016-09-16T04:04:04.135Z,5.45
2016-09-16T04:05:04.144Z,5.38
2016-09-16T04:06:04.154Z,5.27
2016-09-16T04:07:04.444Z,5.08
2016-09-16T04:08:04.128Z,4.9
2016-09-16T04:09:04.431Z,4.79
2016-09-16T04:10:04.087Z,4.74
2016-09-16T04:11:04.106Z,4.65
2016-09-16T04:12:04.068Z,4.65
2016-09-16T04:13:04.081Z,4.71
2016-09-16T04:14:04.049Z,4.8
2016-09-16T04:15:04.051Z,4.79
2016-09-16T04:16:04.047Z,4.9
2016-09-16T04:17:04.313Z,4.91
2016-09-16T04:18:03.994Z,4.99
2016-09-16T04:19:03.987Z,4.93
2016-09-16T04:20:03.985Z,5.01
2016-09-16T04:21:03.980Z,5.15
2016-09-16T04:22:03.969Z,5.19
2016-09-16T04:23:03.954Z,5.11
2016-09-16T04:24:03.962Z,5.17
2016-09-16T04:25:03.960Z,5.15
2016-09-16T04:26:03.941Z,5.01
2016-09-16T04:27:03.937Z,4.94
2016-09-16T04:28:03.927Z,4.91
2016-09-16T04:29:03.885Z,4.84
2016-09-16T04:30:03.913Z,4.8
2016-09-16T04:31:03.856Z,4.83
2016-09-16T04:32:03.864Z,4.84
2016-09-16T04:33:03.876Z,4.8
2016-09-16T04:34:03.845Z,4.8
2016-09-16T04:35:03.837Z,4.9
2016-09-16T04:36:04.122Z,4.88
2016-09-16T04:37:03.818Z,4.88
2016-09-16T04:38:03.782Z,5.01
2016-09-16T04:39:03.796Z,5.06
2016-09-16T04:40:03.781Z,5.05
2016-09-16T04:41:03.780Z,5.01
2016-09-16T04:42:03.760Z,5.02
2016-09-16T04:43:03.753Z,4.97
2016-09-16T04:44:03.735Z,5.04
2016-09-16T04:45:03.741Z,4.94
2016-09-16T04:46:03.734Z,4.99
2016-09-16T04:47:03.709Z,4.87
2016-09-16T04:48:03.678Z,4.77
2016-09-16T04:49:03.680Z,4.77
2016-09-16T04:50:03.655Z,4.83
2016-09-16T04:51:03.661Z,4.77
2016-09-16T04:52:03.640Z,5.06
2016-09-16T04:53:03.647Z,5.15
2016-09-16T04:54:03.613Z,5.08
2016-09-16T04:55:03.636Z,4.94
2016-09-16T04:56:03.592Z,4.99
2016-09-16T04:57:03.598Z,4.96
2016-09-16T04:58:03.585Z,5.04
2016-09-16T04:59:03.588Z,5.01
2016-09-16T05:00:03.565Z,4.87
2016-09-16T05:01:03.560Z,4.8
2016-09-16T05:02:03.544Z,4.79
2016-09-16T05:03:03.526Z,4.86
2016-09-16T05:04:03.529Z,4.97
2016-09-16T05:05:03.498Z,5.15
2016-09-16T05:06:03.491Z,5.19
2016-09-16T05:07:03.502Z,5.33
2016-09-16T05:08:03.494Z,5.32
2016-09-16T05:09:03.466Z,5.35
2016-09-16T05:10:03.774Z,5.55
2016-09-16T05:11:03.452Z,5.67
2016-09-16T05:12:03.437Z,5.73
2016-09-16T05:13:03.439Z,5.73
2016-09-16T05:14:03.421Z,5.77
2016-09-16T05:15:03.698Z,5.78
2016-09-16T05:16:03.432Z,5.77
2016-09-16T05:17:03.405Z,5.69
2016-09-16T05:18:03.370Z,5.66
2016-09-16T05:19:03.357Z,5.73
2016-09-16T05:20:03.363Z,5.73
2016-09-16T05:21:03.344Z,5.81
2016-09-16T05:22:03.337Z,5.81
2016-09-16T05:23:03.327Z,5.78
2016-09-16T05:24:03.309Z,5.77
2016-09-16T05:25:03.310Z,5.83
2016-09-16T05:26:03.304Z,5.85
2016-09-16T05:27:03.276Z,5.93
2016-09-16T05:28:03.289Z,5.92
2016-09-16T05:29:03.241Z,5.8
2016-09-16T05:30:03.268Z,5.77
2016-09-16T05:31:03.256Z,5.84
2016-09-16T05:32:03.250Z,5.87
2016-09-16T05:33:03.230Z,5.88
2016-09-16T05:34:03.212Z,5.88
2016-09-16T05:35:03.225Z,5.85
2016-09-16T05:36:03.188Z,5.85
2016-09-16T05:37:03.174Z,5.9
2016-09-16T05:38:03.172Z,5.83
2016-09-16T05:39:03.187Z,5.92
2016-09-16T05:40:03.143Z,6.01
2016-09-16T05:41:03.143Z,5.88
2016-09-16T05:42:03.134Z,5.93
2016-09-16T05:43:03.120Z,5.99
2016-09-16T05:44:03.111Z,6.2
2016-09-16T05:45:03.113Z,6.24
2016-09-16T05:46:03.093Z,5.88
2016-09-16T05:47:03.090Z,5.48
2016-09-16T05:48:03.432Z,5.02
2016-09-16T05:49:03.050Z,4.94
2016-09-16T05:50:03.040Z,4.83
2016-09-16T05:51:03.020Z,4.8
2016-09-16T05:52:03.040Z,4.68
2016-09-16T05:53:03.021Z,4.64
2016-09-16T05:54:03.009Z,4.79
2016-09-16T05:55:02.986Z,4.91
2016-09-16T05:56:02.995Z,5.12
2016-09-16T05:57:02.982Z,5.29
2016-09-16T05:58:02.961Z,5.23
2016-09-16T05:59:02.971Z,5.19
2016-09-16T06:00:02.955Z,5.27
2016-09-16T06:01:02.959Z,5.47
2016-09-16T06:02:02.915Z,5.48
2016-09-16T06:03:02.895Z,5.65
2016-09-16T06:04:02.907Z,5.55
2016-09-16T06:05:02.874Z,5.22
2016-09-16T06:06:02.895Z,5.01
2016-09-16T06:07:02.878Z,4.93
2016-09-16T06:08:02.852Z,5.09
2016-09-16T06:09:02.856Z,5.24
2016-09-16T06:10:02.833Z,5.45
2016-09-16T06:11:02.845Z,5.65
2016-09-16T06:12:02.840Z,5.59
2016-09-16T06:13:02.827Z,5.56
2016-09-16T06:14:02.781Z,5.52
2016-09-16T06:15:02.796Z,5.63
2016-09-16T06:16:02.765Z,5.55
2016-09-16T06:17:02.764Z,5.62
2016-09-16T06:18:02.754Z,5.47
2016-09-16T06:19:02.754Z,5.65
2016-09-16T06:20:02.735Z,5.66
2016-09-16T06:21:02.753Z,5.45
2016-09-16T06:22:02.709Z,5.42
2016-09-16T06:23:02.704Z,5.63
2016-09-16T06:24:02.679Z,5.65
2016-09-16T06:25:02.688Z,5.78
2016-09-16T06:26:02.659Z,5.83
2016-09-16T06:27:02.663Z,5.81
2016-09-16T06:28:02.650Z,5.99
2016-09-16T06:29:02.651Z,6.06
2016-09-16T06:30:02.629Z,5.83
2016-09-16T06:31:02.618Z,5.65
2016-09-16T06:32:02.951Z,5.42
2016-09-16T06:33:02.601Z,5.37
2016-09-16T06:34:02.594Z,5.42
2016-09-16T06:35:02.578Z,5.23
2016-09-16T06:36:02.575Z,5.38
2016-09-16T06:37:02.550Z,5.12
2016-09-16T06:38:02.566Z,4.93
2016-09-16T06:39:02.535Z,4.8
2016-09-16T06:40:02.528Z,4.65
2016-09-16T06:41:02.515Z,4.84
2016-09-16T06:42:02.494Z,4.88
2016-09-16T06:43:02.500Z,4.8
2016-09-16T06:44:02.465Z,4.79
2016-09-16T06:45:02.484Z,4.77
2016-09-16T06:46:02.469Z,4.71
2016-09-16T06:47:02.430Z,4.8
2016-09-16T06:48:02.754Z,4.8
2016-09-16T06:49:02.418Z,4.83
2016-09-16T06:50:02.413Z,4.94
2016-09-16T06:51:02.405Z,4.99
2016-09-16T06:52:02.387Z,5.04
2016-09-16T06:53:02.390Z,5.01
2016-09-16T06:54:02.361Z,4.97
2016-09-16T06:55:02.366Z,5.01
2016-09-16T06:56:02.327Z,4.96
2016-09-16T06:57:02.309Z,4.91
2016-09-16T06:58:02.342Z,4.99
2016-09-16T06:59:02.301Z,4.9
2016-09-16T07:00:02.291Z,4.88
2016-09-16T07:01:02.263Z,4.79
2016-09-16T07:02:02.260Z,4.91
2016-09-16T07:03:02.267Z,4.83
2016-09-16T07:04:02.222Z,4.86
2016-09-16T07:05:02.230Z,4.91
2016-09-16T07:06:02.211Z,5.08
2016-09-16T07:07:02.205Z,5.09
2016-09-16T07:08:02.174Z,5.26
2016-09-16T07:09:02.179Z,5.27
2016-09-16T07:10:02.166Z,5.27
2016-09-16T07:11:02.150Z,5.22
2016-09-16T07:12:02.136Z,5.38
2016-09-16T07:13:02.107Z,5.4
2016-09-16T07:14:02.104Z,5.35
2016-09-16T07:15:02.105Z,5.42
2016-09-16T07:16:02.089Z,5.33
2016-09-16T07:17:02.092Z,5.44
2016-09-16T07:18:02.062Z,5.26
2016-09-16T07:19:02.034Z,5.27
2016-09-16T07:20:02.050Z,5.26
2016-09-16T07:21:02.021Z,5.27
2016-09-16T07:22:02.035Z,5.09
2016-09-16T07:23:02.008Z,5.06
2016-09-16T07:24:02.008Z,5.14
2016-09-16T07:25:01.983Z,5.15
2016-09-16T07:26:01.980Z,5.2
2016-09-16T07:27:01.970Z,5.35
2016-09-16T07:28:01.944Z,5.35
2016-09-16T07:29:01.926Z,5.38
2016-09-16T07:30:01.919Z,5.41
2016-09-16T07:31:01.888Z,5.44
2016-09-16T07:32:01.904Z,5.42
2016-09-16T07:33:01.875Z,5.49
2016-09-16T07:34:01.871Z,5.62
2016-09-16T07:35:01.848Z,5.69
2016-09-16T07:36:01.866Z,5.84
2016-09-16T07:37:01.840Z,5.93
2016-09-16T07:38:01.829Z,5.92
2016-09-16T07:39:01.821Z,5.87
2016-09-16T07:40:01.799Z,5.8
2016-09-16T07:41:01.801Z,5.77
2016-09-16T07:42:01.771Z,5.83
2016-09-16T07:43:01.745Z,5.9
2016-09-16T07:44:01.749Z,6.01
2016-09-16T07:45:01.739Z,6.05
2016-09-16T07:46:01.706Z,6.05
2016-09-16T07:47:02.004Z,6.02
2016-09-16T07:48:01.720Z,6.16
2016-09-16T07:49:01.706Z,6.33
2016-09-16T07:50:01.687Z,6.54
2016-09-16T07:51:01.680Z,6.61
2016-09-16T07:52:01.666Z,6.82
2016-09-16T07:53:01.651Z,7.01
2016-09-16T07:54:01.632Z,7.04
2016-09-16T07:55:01.638Z,7.09
2016-09-16T07:56:01.624Z,7.34
2016-09-16T07:57:01.590Z,7.27
2016-09-16T07:58:01.592Z,7.26
2016-09-16T07:59:01.568Z,7.32
2016-09-16T08:00:01.560Z,7.33
2016-09-16T08:01:01.535Z,7.3
2016-09-16T08:02:01.530Z,7.55
2016-09-16T08:03:01.533Z,7.5
2016-09-16T08:04:01.515Z,7.47
2016-09-16T08:05:01.513Z,7.44
2016-09-16T08:06:01.504Z,7.52
2016-09-16T08:07:01.506Z,7.57
2016-09-16T08:08:01.489Z,7.54
2016-09-16T08:09:01.464Z,7.29
2016-09-16T08:10:01.461Z,7.24
2016-09-16T08:11:01.434Z,7.42
2016-09-16T08:12:01.447Z,7.84
2016-09-16T08:13:01.441Z,7.99
2016-09-16T08:14:01.413Z,7.85
2016-09-16T08:15:01.405Z,7.7
2016-09-16T08:16:01.395Z,7.74
2016-09-16T08:17:01.381Z,8.03
2016-09-16T08:18:01.380Z,8.13
2016-09-16T08:19:01.358Z,8.12
2016-09-16T08:20:01.373Z,8.37
2016-09-16T08:21:01.350Z,8.37
2016-09-16T08:22:01.333Z,8.6
2016-09-16T08:23:01.324Z,8.6
2016-09-16T08:24:01.306Z,8.31
2016-09-16T08:25:01.331Z,8.28
2016-09-16T08:26:01.292Z,7.67
2016-09-16T08:27:01.291Z,7.42
2016-09-16T08:28:01.283Z,7.91
2016-09-16T08:29:01.281Z,8.5
2016-09-16T08:30:01.261Z,8.65
2016-09-16T08:31:01.265Z,8.91
2016-09-16T08:32:01.257Z,9.35
2016-09-16T08:33:01.217Z,9.38
2016-09-16T08:34:01.203Z,9.62
2016-09-16T08:35:01.211Z,9.7
2016-09-16T08:36:01.185Z,9.91
2016-09-16T08:37:01.199Z,10.22
2016-09-16T08:38:01.174Z,10.42
2016-09-16T08:39:01.187Z,10.35
2016-09-16T08:40:01.163Z,10.52
2016-09-16T08:41:01.164Z,10.95
2016-09-16T08:42:01.151Z,11.13
2016-09-16T08:43:01.127Z,10.17
2016-09-16T08:44:01.131Z,9.98
2016-09-16T08:45:01.132Z,10.32
2016-09-16T08:46:01.111Z,10.44
2016-09-16T08:47:01.088Z,10.36
2016-09-16T08:48:01.099Z,10.8
2016-09-16T08:49:01.090Z,10.62
2016-09-16T08:50:01.096Z,10.9
2016-09-16T08:51:01.052Z,11.2
2016-09-16T08:52:01.073Z,11.2
2016-09-16T08:53:01.065Z,10.58
2016-09-16T08:54:01.041Z,10.52
2016-09-16T08:55:01.030Z,10.78
2016-09-16T08:56:01.026Z,11.24
2016-09-16T08:57:01.023Z,11.69
2016-09-16T08:58:01.026Z,11.82
2016-09-16T08:59:01.014Z,11.6
2016-09-16T09:00:01.010Z,11.08
2016-09-16T09:01:01.003Z,10.69
2016-09-16T09:02:00.960Z,10.9
2016-09-16T09:03:00.952Z,11.03
2016-09-16T09:04:00.959Z,11.01
2016-09-16T09:05:00.957Z,10.99
2016-09-16T09:06:00.943Z,11.44
2016-09-16T09:07:00.929Z,11.27
2016-09-16T09:08:00.924Z,11.08
2016-09-16T09:09:00.924Z,11.42
2016-09-16T09:10:00.912Z,11.78
2016-09-16T09:11:00.891Z,12.21
2016-09-16T09:12:00.889Z,12.31
2016-09-16T09:13:00.901Z,12.36
2016-09-16T09:14:00.883Z,12.29
2016-09-16T09:15:00.857Z,12.16
2016-09-16T09:16:00.851Z,12.18
2016-09-16T09:17:00.865Z,12.44
2016-09-16T09:18:00.854Z,12.69
2016-09-16T09:19:00.851Z,12.76
2016-09-16T09:20:00.841Z,12.89
2016-09-16T09:21:00.828Z,13.03
2016-09-16T09:22:00.817Z,13.55
2016-09-16T09:23:00.809Z,13.66
2016-09-16T09:24:00.826Z,13.01
2016-09-16T09:25:00.807Z,12.55
2016-09-16T09:26:00.800Z,12.51
2016-09-16T09:27:00.786Z,12.05
2016-09-16T09:28:00.779Z,11.72
2016-09-16T09:29:00.771Z,11.77
2016-09-16T09:30:00.755Z,11.49
2016-09-16T09:31:00.778Z,11.36
2016-09-16T09:32:00.735Z,10.94
2016-09-16T09:33:00.749Z,10.88
2016-09-16T09:34:00.726Z,11.06
2016-09-16T09:35:00.731Z,11.38
2016-09-16T09:36:00.704Z,11.11
2016-09-16T09:37:00.719Z,11.12
2016-09-16T09:38:00.692Z,11.05
2016-09-16T09:39:00.698Z,10.86
2016-09-16T09:40:00.698Z,11.19
2016-09-16T09:41:00.695Z,11.31
2016-09-16T09:42:00.680Z,11.69
2016-09-16T09:43:00.677Z,12.13
2016-09-16T09:44:00.682Z,12.38
2016-09-16T09:45:00.662Z,12.55
2016-09-16T09:46:00.648Z,12.4
2016-09-16T09:47:00.634Z,11.78
2016-09-16T09:48:00.622Z,11.31
2016-09-16T09:49:00.618Z,10.75
2016-09-16T09:50:00.631Z,10.7
2016-09-16T09:51:00.604Z,10.62
2016-09-16T09:52:00.613Z,10.91
2016-09-16T09:53:00.599Z,11.23
2016-09-16T09:54:00.577Z,11.6
2016-09-16T09:55:00.565Z,11.66
2016-09-16T09:56:00.560Z,12.05
2016-09-16T09:57:00.555Z,12.33
2016-09-16T09:58:00.532Z,12.01
2016-09-16T09:59:00.544Z,12.15
2016-09-16T10:00:00.526Z,12.38
2016-09-16T10:01:00.533Z,12.15
2016-09-16T10:02:00.528Z,12.18
2016-09-16T10:03:00.525Z,12.15
2016-09-16T10:04:00.491Z,11.6
2016-09-16T10:05:00.509Z,11.64
2016-09-16T10:06:00.486Z,11.59
2016-09-16T10:07:00.466Z,11.64
2016-09-16T10:08:00.459Z,11.67
2016-09-16T10:09:00.463Z,12.05
2016-09-16T10:10:00.464Z,12.29
2016-09-16T10:11:00.427Z,12.41
2016-09-16T10:12:00.442Z,12
2016-09-16T10:13:00.435Z,12.03
2016-09-16T10:14:00.419Z,11.57
2016-09-16T10:15:00.723Z,11.54
2016-09-16T10:16:00.414Z,11.54
2016-09-16T10:17:00.396Z,11.72
2016-09-16T10:18:00.388Z,11.87
2016-09-16T10:19:00.400Z,12.04
2016-09-16T10:20:00.360Z,12.18
2016-09-16T10:21:00.368Z,12.44
2016-09-16T10:22:00.344Z,12.36
2016-09-16T10:23:00.351Z,11.88
2016-09-16T10:24:00.356Z,11.62
2016-09-16T10:25:00.328Z,11.41
2016-09-16T10:26:00.320Z,11.17
2016-09-16T10:27:00.316Z,10.2
2016-09-16T10:28:00.299Z,10.35
2016-09-16T10:29:00.300Z,10.49
2016-09-16T10:30:00.298Z,10.02
2016-09-16T10:31:00.299Z,10.39
2016-09-16T10:32:00.268Z,10.68
2016-09-16T10:33:00.290Z,10.58
2016-09-16T10:34:00.280Z,10.84
2016-09-16T10:35:00.272Z,10.83
2016-09-16T10:36:00.239Z,10.65
2016-09-16T10:37:00.241Z,10.36
2016-09-16T10:38:00.240Z,10.52
2016-09-16T10:39:00.220Z,10.29
2016-09-16T10:40:00.207Z,9.63
2016-09-16T10:41:00.211Z,9.48
2016-09-16T10:42:00.188Z,9.77
2016-09-16T10:43:00.189Z,9.75
2016-09-16T10:44:00.176Z,9.45
2016-09-16T10:45:00.188Z,9.37
2016-09-16T10:46:00.185Z,9.49
2016-09-16T10:47:00.183Z,9.49
2016-09-16T10:48:00.161Z,9.78
2016-09-16T10:49:00.311Z,9.75
2016-09-16T10:50:00.134Z,9.81
2016-09-16T10:51:00.113Z,9.86
2016-09-16T10:52:00.123Z,9.89
2016-09-16T10:53:00.103Z,9.86
2016-09-16T10:54:00.089Z,10.02
2016-09-16T10:55:00.078Z,9.85
2016-09-16T10:56:00.107Z,9.6
2016-09-16T10:57:00.080Z,9.89
2016-09-16T10:58:00.045Z,10.06
2016-09-16T10:59:00.056Z,10.18
2016-09-16T11:00:00.057Z,10.63
2016-09-16T11:01:00.038Z,11.26
2016-09-16T11:02:00.036Z,11.59
2016-09-16T11:03:00.026Z,11.67
2016-09-16T11:04:00.012Z,10.84
2016-09-16T11:05:00.018Z,10.29
2016-09-16T11:05:59.997Z,9.99
2016-09-16T11:06:59.992Z,9.34
2016-09-16T11:07:59.983Z,9.48
2016-09-16T11:08:59.992Z,9.6
2016-09-16T11:09:59.982Z,9.91
2016-09-16T11:10:59.973Z,10.46
2016-09-16T11:11:59.936Z,10.95
2016-09-16T11:12:59.930Z,11.38
2016-09-16T11:13:59.934Z,11.56
2016-09-16T11:14:59.903Z,11.6
2016-09-16T11:15:59.924Z,11.63
2016-09-16T11:16:59.910Z,11.45
2016-09-16T11:17:59.901Z,11.54
2016-09-16T11:18:59.910Z,11.79
2016-09-16T11:19:59.892Z,11.75
2016-09-16T11:20:59.862Z,11.94
2016-09-16T11:21:59.857Z,11.9
2016-09-16T11:22:59.864Z,12.04
2016-09-16T11:23:59.862Z,11.72
2016-09-16T11:24:59.838Z,11.6
2016-09-16T11:25:59.851Z,11.3
2016-09-16T11:26:59.833Z,10.94
2016-09-16T11:27:59.825Z,10.91
2016-09-16T11:28:59.797Z,10.91
2016-09-16T11:29:59.803Z,10.83
2016-09-16T11:30:59.799Z,10.81
2016-09-16T11:31:59.802Z,10.58
2016-09-16T11:32:59.777Z,10.22
2016-09-16T11:33:59.778Z,10.07
2016-09-16T11:34:59.760Z,9.92
2016-09-16T11:35:59.760Z,10.09
2016-09-16T11:36:59.753Z,10.31
2016-09-16T11:37:59.740Z,10.2
2016-09-16T11:38:59.738Z,10.13
2016-09-16T11:39:59.743Z,10.2
2016-09-16T11:40:59.728Z,10.28
2016-09-16T11:41:59.704Z,10.51
2016-09-16T11:42:59.683Z,10.84
2016-09-16T11:43:59.674Z,10.94
2016-09-16T11:44:59.685Z,11.06
2016-09-16T11:45:59.688Z,11.08
2016-09-16T11:46:59.652Z,10.86
2016-09-16T11:47:59.659Z,10.91
2016-09-16T11:48:59.650Z,10.72
2016-09-16T11:49:59.651Z,10.55
2016-09-16T11:50:59.618Z,10.65
2016-09-16T11:51:59.613Z,10.8
2016-09-16T11:52:59.635Z,10.63
2016-09-16T11:53:59.610Z,10.26
2016-09-16T11:54:59.588Z,9.48
2016-09-16T11:55:59.599Z,9.63
2016-09-16T11:56:59.588Z,10.14
2016-09-16T11:57:59.601Z,9.88
2016-09-16T11:58:59.571Z,8.76
2016-09-16T11:59:59.578Z,8.1
2016-09-16T12:00:59.549Z,8.27
2016-09-16T12:01:59.542Z,8.58
2016-09-16T12:02:59.559Z,9.04
2016-09-16T12:03:59.541Z,9.35
2016-09-16T12:04:59.535Z,9.55
2016-09-16T12:05:59.537Z,9.96
2016-09-16T12:06:59.507Z,10.09
2016-09-16T12:07:59.485Z,10.43
2016-09-16T12:08:59.488Z,10.39
2016-09-16T12:09:59.480Z,10.31
2016-09-16T12:10:59.464Z,10.06
2016-09-16T12:11:59.496Z,10.06
2016-09-16T12:12:59.452Z,9.92
2016-09-16T12:13:59.442Z,9.86
2016-09-16T12:14:59.452Z,10.28
2016-09-16T12:15:59.422Z,10.2
2016-09-16T12:16:59.431Z,10.17
2016-09-16T12:17:59.432Z,10.35
2016-09-16T12:18:59.413Z,10.44
2016-09-16T12:19:59.390Z,10.44
2016-09-16T12:20:59.414Z,10.38
2016-09-16T12:21:59.387Z,10.29
2016-09-16T12:22:59.380Z,10.38
2016-09-16T12:23:59.375Z,10.31
2016-09-16T12:24:59.384Z,10.44
2016-09-16T12:25:59.357Z,10.2
2016-09-16T12:26:59.368Z,9.59
2016-09-16T12:27:59.329Z,9.74
2016-09-16T12:28:59.343Z,9.96
2016-09-16T12:29:59.330Z,10.35
2016-09-16T12:30:59.614Z,10.34
2016-09-16T12:31:59.328Z,10.24
2016-09-16T12:32:59.285Z,9.96
2016-09-16T12:33:59.310Z,9.81
2016-09-16T12:34:59.281Z,9.49
2016-09-16T12:35:59.280Z,9.19
2016-09-16T12:36:59.271Z,9
2016-09-16T12:37:59.268Z,8.68
2016-09-16T12:38:59.270Z,8.5
2016-09-16T12:39:59.258Z,8.63
2016-09-16T12:40:59.254Z,8.65
2016-09-16T12:41:59.209Z,8.75
2016-09-16T12:42:59.209Z,8.64
2016-09-16T12:43:59.238Z,8.63
2016-09-16T12:44:59.205Z,8.82
2016-09-16T12:45:59.203Z,8.8
2016-09-16T12:46:59.192Z,8.67
2016-09-16T12:47:59.171Z,8.29
2016-09-16T12:48:59.169Z,7.94
2016-09-16T12:49:59.173Z,8.06
2016-09-16T12:50:59.155Z,8.22
2016-09-16T12:51:59.143Z,8.37
2016-09-16T12:52:59.124Z,8.49
2016-09-16T12:53:59.546Z,8.47
2016-09-16T12:54:59.091Z,8.04
2016-09-16T12:55:59.095Z,7.99
2016-09-16T12:56:59.093Z,8.34
2016-09-16T12:57:59.065Z,8.43
2016-09-16T12:58:59.069Z,8.43
2016-09-16T12:59:59.062Z,8.5
2016-09-16T13:00:59.050Z,8.6
2016-09-16T13:01:59.045Z,8.73
2016-09-16T13:02:59.028Z,8.73
2016-09-16T13:03:59.022Z,8.83
2016-09-16T13:04:59.030Z,8.78
2016-09-16T13:05:58.997Z,8.7
2016-09-16T13:06:58.990Z,8.73
2016-09-16T13:07:58.994Z,8.76
2016-09-16T13:08:58.990Z,8.71
2016-09-16T13:09:58.967Z,8.73
2016-09-16T13:10:58.972Z,8.49
2016-09-16T13:11:59.234Z,8.45
2016-09-16T13:12:58.936Z,8.29
2016-09-16T13:13:58.928Z,8.42